Time;durP1;ratioP1;P1;durP2;ratioP2;P2;SDS_P1;SDS_P2;PMS_P1;PMS_P2;Temp;Humidity;BMP_temperature;BMP_pressure;BME280_temperature;BME280_humidity;BME280_pressure;Samples;Min_cycle;Max_cycle;Signal;HPM_P1;HPM_P2
2022/02/18 00:00:43;;;;;;;1.25;1.13;;;20.20;99.90;;;;;;5022986;28;20121;-64
2022/02/18 00:03:11;;;;;;;0.65;0.65;;;20.20;99.90;;;;;;5018442;28;20045;-60
2022/02/18 00:05:38;;;;;;;1.55;1.38;;;20.20;99.90;;;;;;5007655;28;20530;-64
2022/02/18 00:08:06;;;;;;;0.32;0.32;;;20.20;99.90;;;;;;5019498;28;20508;-64
2022/02/18 00:10:33;;;;;;;0.40;0.40;;;20.20;99.90;;;;;;4998915;28;20041;-61
2022/02/18 00:13:01;;;;;;;;;;;20.10;99.90;;;;;;5019893;28;20056;-64
2022/02/18 00:15:28;;;;;;;0.47;0.47;;;20.10;99.90;;;;;;5024312;28;19939;-62
2022/02/18 00:17:55;;;;;;;10.30;1.23;;;20.10;99.90;;;;;;5023396;28;20053;-64
2022/02/18 00:20:23;;;;;;;0.50;0.50;;;20.10;99.90;;;;;;5015599;28;20057;-60
2022/02/18 00:22:51;;;;;;;0.40;0.40;;;20.10;99.90;;;;;;5017678;28;20049;-61
2022/02/18 00:25:19;;;;;;;0.50;0.50;;;20.10;99.90;;;;;;5019695;28;20049;-59
2022/02/18 00:27:49;;;;;;;0.70;0.70;;;20.00;99.90;;;;;;5009025;28;20061;-59
2022/02/18 00:30:16;;;;;;;0.30;0.30;;;20.00;99.90;;;;;;4998956;28;20548;-59
2022/02/18 00:32:44;;;;;;;3.38;1.88;;;20.00;99.90;;;;;;5015291;28;20394;-59
2022/02/18 00:35:11;;;;;;;0.40;0.40;;;20.00;99.90;;;;;;5023064;28;20148;-61
2022/02/18 00:37:42;;;;;;;0.68;0.68;;;20.00;99.90;;;;;;5013795;28;20172;-61
2022/02/18 00:40:10;;;;;;;0.32;0.32;;;20.00;99.90;;;;;;5009262;28;20050;-60
2022/02/18 00:42:37;;;;;;;0.30;0.30;;;20.00;99.90;;;;;;5011646;28;20049;-61
2022/02/18 00:45:07;;;;;;;0.50;0.50;;;20.00;99.90;;;;;;5017655;28;20061;-62
2022/02/18 00:47:34;;;;;;;0.68;0.68;;;20.00;99.90;;;;;;5009185;28;20054;-59
2022/02/18 00:50:03;;;;;;;0.30;0.30;;;20.00;99.90;;;;;;5017033;28;20057;-62
2022/02/18 00:52:30;;;;;;;0.30;0.30;;;20.00;99.90;;;;;;4989753;28;20049;-59
2022/02/18 00:54:57;;;;;;;0.30;0.30;;;20.00;99.90;;;;;;5006538;28;20056;-61
2022/02/18 00:57:26;;;;;;;1.35;0.70;;;20.00;99.90;;;;;;5023637;28;20053;-62
2022/02/18 00:59:55;;;;;;;0.40;0.40;;;20.00;99.90;;;;;;5017169;28;20045;-62
2022/02/18 01:02:22;;;;;;;0.45;0.45;;;20.00;99.90;;;;;;5004151;28;20050;-62
2022/02/18 01:04:50;;;;;;;2.10;1.23;;;20.00;99.90;;;;;;5013112;28;20054;-61
2022/02/18 01:07:18;;;;;;;0.43;0.43;;;20.00;99.90;;;;;;5002660;28;20053;-62
2022/02/18 01:09:46;;;;;;;0.77;0.77;;;19.90;99.90;;;;;;4993419;28;20054;-61
2022/02/18 01:12:13;;;;;;;0.30;0.30;;;19.90;99.90;;;;;;4999954;28;20121;-60
2022/02/18 01:14:41;;;;;;;0.70;0.52;;;19.90;99.90;;;;;;5007895;28;20497;-61
2022/02/18 01:17:08;;;;;;;0.30;0.30;;;19.90;99.90;;;;;;5017876;28;20437;-62
2022/02/18 01:19:35;;;;;;;0.50;0.50;;;19.90;99.90;;;;;;5015491;28;20509;-62
2022/02/18 01:22:04;;;;;;;0.30;0.30;;;19.80;99.90;;;;;;5017454;28;20593;-63
2022/02/18 01:24:31;;;;;;;;;;;19.80;99.90;;;;;;5023603;28;20058;-60
2022/02/18 01:26:59;;;;;;;0.30;0.30;;;19.80;99.90;;;;;;5025574;28;20316;-61
2022/02/18 01:29:27;;;;;;;0.40;0.40;;;19.80;99.90;;;;;;4999345;28;20060;-60
2022/02/18 01:31:55;;;;;;;1.27;0.80;;;19.80;99.90;;;;;;5017982;28;20054;-61
2022/02/18 01:34:28;;;;;;;1.25;1.13;;;19.80;99.90;;;;;;5017076;28;20394;-60
2022/02/18 01:36:55;;;;;;;0.30;0.30;;;19.80;99.90;;;;;;5027377;28;20045;-61
2022/02/18 01:39:22;;;;;;;0.50;0.50;;;19.80;99.90;;;;;;5013640;28;20780;-59
2022/02/18 01:41:49;;;;;;;0.52;0.52;;;19.80;99.90;;;;;;5015582;28;20095;-60
2022/02/18 01:44:37;;;;;;;0.30;0.30;;;19.80;99.90;;;;;;5014868;28;20501;-61
2022/02/18 01:47:15;;;;;;;0.40;0.40;;;19.80;99.90;;;;;;5017925;28;20052;-62
2022/02/18 01:49:44;;;;;;;0.52;0.52;;;19.80;99.90;;;;;;5017932;28;20053;-59
2022/02/18 01:52:11;;;;;;;0.30;0.30;;;19.80;99.90;;;;;;5025600;28;20046;-60
2022/02/18 01:54:39;;;;;;;;;;;19.80;99.90;;;;;;5021694;28;20497;-62
2022/02/18 01:57:07;;;;;;;0.30;0.30;;;19.70;99.90;;;;;;5018745;28;19928;-60
2022/02/18 01:59:36;;;;;;;0.65;0.65;;;19.80;99.90;;;;;;5024608;28;20076;-60
2022/02/18 02:02:04;;;;;;;0.30;0.30;;;19.80;99.90;;;;;;5030500;28;20048;-59
2022/02/18 02:04:32;;;;;;;34.72;2.63;;;19.80;99.90;;;;;;5007285;28;20054;-59
2022/02/18 02:07:03;;;;;;;0.40;0.40;;;19.80;99.90;;;;;;5027662;28;20050;-58
2022/02/18 02:09:33;;;;;;;0.77;0.77;;;19.80;99.90;;;;;;5026450;28;20053;-60
2022/02/18 02:12:01;;;;;;;0.82;0.82;;;19.70;99.90;;;;;;5023388;28;20489;-60
2022/02/18 02:14:32;;;;;;;0.40;0.40;;;19.70;99.90;;;;;;4998108;28;20052;-61
2022/02/18 02:17:00;;;;;;;0.30;0.30;;;19.70;99.90;;;;;;5011457;28;20510;-61
2022/02/18 02:19:27;;;;;;;1.17;0.60;;;19.70;99.90;;;;;;5015697;28;20517;-61
2022/02/18 02:21:56;;;;;;;;;;;19.70;99.90;;;;;;5029758;28;20486;-61
2022/02/18 02:24:23;;;;;;;0.30;0.30;;;19.70;99.90;;;;;;5006617;28;19925;-60
2022/02/18 02:26:51;;;;;;;1.35;0.43;;;19.70;99.90;;;;;;5014560;28;20049;-60
2022/02/18 02:29:20;;;;;;;1.75;1.48;;;19.70;99.90;;;;;;5010547;28;20061;-61
2022/02/18 02:31:49;;;;;;;0.30;0.30;;;19.70;99.90;;;;;;5009324;28;20074;-60
2022/02/18 02:34:16;;;;;;;0.30;0.30;;;19.70;99.90;;;;;;5019832;28;20133;-61
2022/02/18 02:36:45;;;;;;;0.30;0.30;;;19.70;99.90;;;;;;5010537;28;20053;-60
2022/02/18 02:39:14;;;;;;;0.50;0.50;;;19.70;99.90;;;;;;5008318;28;20046;-62
2022/02/18 02:41:48;;;;;;;0.68;0.68;;;19.60;99.90;;;;;;5008090;28;20050;-60
2022/02/18 02:44:15;;;;;;;;;;;19.60;99.90;;;;;;5012753;28;20041;-59
2022/02/18 02:46:42;;;;;;;0.30;0.30;;;19.70;99.90;;;;;;5025200;28;19925;-59
2022/02/18 02:49:22;;;;;;;0.30;0.30;;;19.70;99.90;;;;;;5000325;28;20057;-60
2022/02/18 02:51:51;;;;;;;0.38;0.38;;;19.70;99.90;;;;;;5008296;28;20056;-62
2022/02/18 02:54:19;;;;;;;0.30;0.30;;;19.70;99.90;;;;;;4996690;28;20137;-60
2022/02/18 02:56:56;;;;;;;0.30;0.30;;;19.70;99.90;;;;;;5003862;28;20053;-60
2022/02/18 02:59:33;;;;;;;0.30;0.30;;;19.70;99.90;;;;;;5005603;28;20046;-60
2022/02/18 03:02:00;;;;;;;0.60;0.60;;;19.60;99.90;;;;;;5001236;28;20045;-60
2022/02/18 03:04:29;;;;;;;1.17;0.88;;;19.60;99.90;;;;;;5015518;28;20512;-61
2022/02/18 03:06:58;;;;;;;0.30;0.30;;;19.70;99.90;;;;;;5003936;28;20045;-60
2022/02/18 03:09:52;;;;;;;0.40;0.40;;;19.70;99.90;;;;;;5026722;28;20072;-60
2022/02/18 03:12:20;;;;;;;;;;;19.60;99.90;;;;;;4997743;28;20461;-60
2022/02/18 03:14:52;;;;;;;0.30;0.30;;;19.60;99.90;;;;;;5032527;28;19999;-62
2022/02/18 03:17:26;;;;;;;0.40;0.40;;;19.60;99.90;;;;;;4996801;28;20050;-61
2022/02/18 03:20:14;;;;;;;3.03;0.77;;;19.60;99.90;;;;;;5006894;28;20714;-61
2022/02/18 03:22:41;;;;;;;0.43;0.43;;;19.60;99.90;;;;;;5032392;28;20050;-59
2022/02/18 03:25:09;;;;;;;0.30;0.30;;;19.60;99.90;;;;;;5010380;28;20042;-62
2022/02/18 03:27:42;;;;;;;0.30;0.30;;;19.60;99.90;;;;;;5002446;28;20054;-60
2022/02/18 03:30:11;;;;;;;0.25;0.25;;;19.60;99.90;;;;;;5004047;28;20045;-61
2022/02/18 03:32:41;;;;;;;0.40;0.40;;;19.60;99.90;;;;;;4998839;28;20065;-59
2022/02/18 03:35:10;;;;;;;0.30;0.30;;;19.60;99.90;;;;;;5005570;28;20045;-60
2022/02/18 03:37:41;;;;;;;1.25;1.00;;;19.60;99.90;;;;;;4996614;28;20060;-60
2022/02/18 03:40:18;;;;;;;2.35;0.70;;;19.60;99.90;;;;;;5006816;28;20370;-59
2022/02/18 03:42:46;;;;;;;;;;;19.60;99.90;;;;;;4999673;28;20675;-60
2022/02/18 03:45:14;;;;;;;0.30;0.30;;;19.50;99.90;;;;;;5038961;28;19925;-59
2022/02/18 03:47:43;;;;;;;0.60;0.60;;;19.60;99.90;;;;;;5006744;28;20159;-59
2022/02/18 03:50:15;;;;;;;2.83;1.02;;;19.60;99.90;;;;;;4993344;28;20045;-61
2022/02/18 03:52:42;;;;;;;;;;;19.60;99.90;;;;;;5004457;28;20171;-61
2022/02/18 03:55:09;;;;;;;0.30;0.30;;;19.60;99.90;;;;;;5003741;28;19927;-60
2022/02/18 03:57:45;;;;;;;1.17;0.88;;;19.60;99.90;;;;;;5025155;28;20072;-60
2022/02/18 04:00:13;;;;;;;0.30;0.30;;;19.60;99.90;;;;;;4999784;28;20588;-59
2022/02/18 04:02:46;;;;;;;0.40;0.40;;;19.60;99.90;;;;;;5030180;28;20064;-61
2022/02/18 04:05:32;;;;;;;0.50;0.50;;;19.50;99.90;;;;;;5025234;28;20067;-59
2022/02/18 04:08:08;;;;;;;0.30;0.30;;;19.50;99.90;;;;;;5004057;28;20402;-60
2022/02/18 04:10:36;;;;;;;0.30;0.30;;;19.50;99.90;;;;;;5002303;28;20053;-61
2022/02/18 04:13:10;;;;;;;0.50;0.50;;;19.50;99.90;;;;;;4993042;28;20049;-61
2022/02/18 04:15:38;;;;;;;0.40;0.40;;;19.50;99.90;;;;;;5006857;28;20049;-60
2022/02/18 04:18:06;;;;;;;0.50;0.50;;;19.50;99.90;;;;;;4992297;28;20050;-58
2022/02/18 04:20:40;;;;;;;3.30;1.48;;;19.40;99.90;;;;;;5004255;28;20437;-57
2022/02/18 04:23:40;;;;;;;0.40;0.40;;;18.70;99.90;;;;;;5034257;28;20055;-59
2022/02/18 04:26:09;;;;;;;3.15;1.92;;;18.10;99.90;;;;;;5002204;28;20042;-60
2022/02/18 04:28:36;;;;;;;4.00;1.88;;;18.20;99.90;;;;;;5011278;28;20458;-57
2022/02/18 04:31:03;;;;;;;1.65;0.80;;;18.40;99.90;;;;;;5015039;28;20421;-60
2022/02/18 04:33:30;;;;;;;1.02;1.02;;;18.60;99.90;;;;;;5012163;28;20068;-60
2022/02/18 04:35:58;;;;;;;0.75;0.75;;;18.80;99.90;;;;;;5010862;28;20061;-58
2022/02/18 04:38:25;;;;;;;6.40;2.92;;;18.90;99.90;;;;;;5017457;28;20065;-60
2022/02/18 04:40:52;;;;;;;10.15;2.60;;;19.00;99.90;;;;;;5011483;28;20046;-59
2022/02/18 04:43:20;;;;;;;1.63;1.23;;;19.00;99.90;;;;;;5025477;28;20065;-59
2022/02/18 04:45:47;;;;;;;0.47;0.47;;;19.10;99.90;;;;;;5018442;28;20061;-58
2022/02/18 04:48:15;;;;;;;0.95;0.90;;;19.10;99.90;;;;;;5005720;28;20068;-60
2022/02/18 04:50:43;;;;;;;0.50;0.50;;;19.10;99.90;;;;;;5016775;28;20049;-58
2022/02/18 04:53:30;;;;;;;0.60;0.60;;;19.10;99.90;;;;;;5021637;28;20050;-61
2022/02/18 04:55:57;;;;;;;0.88;0.88;;;19.20;99.90;;;;;;5014555;28;20072;-59
2022/02/18 04:58:24;;;;;;;0.65;0.65;;;19.20;99.90;;;;;;5014646;28;20050;-58
2022/02/18 05:00:51;;;;;;;0.68;0.68;;;19.40;99.90;;;;;;5011795;28;20053;-60
2022/02/18 05:03:19;;;;;;;0.55;0.55;;;19.60;99.90;;;;;;5019010;28;20058;-60
2022/02/18 05:05:46;;;;;;;0.40;0.40;;;19.80;99.90;;;;;;5012473;28;20041;-59
2022/02/18 05:08:13;;;;;;;2.40;1.20;;;20.10;99.90;;;;;;5014295;28;20041;-60
2022/02/18 05:10:42;;;;;;;3.30;2.20;;;20.20;99.90;;;;;;5019436;28;20046;-60
2022/02/18 05:13:10;;;;;;;8.13;3.05;;;20.40;99.90;;;;;;5018516;28;20053;-60
2022/02/18 05:15:37;;;;;;;0.40;0.40;;;20.50;99.90;;;;;;5016901;28;20053;-60
2022/02/18 05:18:05;;;;;;;0.45;0.45;;;20.50;99.90;;;;;;5017092;28;20054;-60
2022/02/18 05:20:32;;;;;;;;;;;20.60;99.90;;;;;;5016902;28;20056;-61
2022/02/18 05:23:00;;;;;;;0.60;0.60;;;20.80;99.90;;;;;;5018511;28;19933;-61
2022/02/18 05:25:29;;;;;;;4.60;2.13;;;20.90;99.90;;;;;;5024709;28;20148;-62
2022/02/18 05:27:56;;;;;;;12.00;1.80;;;21.10;99.90;;;;;;5025635;28;20053;-60
2022/02/18 05:30:23;;;;;;;4.25;1.52;;;21.20;99.90;;;;;;5012030;28;20053;-61
2022/02/18 05:32:51;;;;;;;0.52;0.52;;;21.40;99.90;;;;;;5016197;28;20057;-61
2022/02/18 05:35:18;;;;;;;1.40;1.30;;;21.50;99.90;;;;;;5012604;28;20045;-59
2022/02/18 05:37:46;;;;;;;3.42;2.10;;;21.70;99.90;;;;;;5020748;28;20049;-61
2022/02/18 05:40:14;;;;;;;1.35;1.02;;;21.90;99.90;;;;;;5017012;28;20046;-60
2022/02/18 05:42:42;;;;;;;0.43;0.43;;;22.00;99.90;;;;;;5018899;28;20053;-57
2022/02/18 05:45:11;;;;;;;10.55;2.42;;;22.10;99.90;;;;;;5015038;28;20046;-60
2022/02/18 05:47:39;;;;;;;9.30;0.77;;;22.20;99.90;;;;;;5023069;28;20164;-62
2022/02/18 05:50:12;;;;;;;0.82;0.82;;;22.20;99.90;;;;;;5013965;28;20041;-61
2022/02/18 05:52:43;;;;;;;1.70;1.50;;;22.30;99.90;;;;;;5015600;28;20046;-62
2022/02/18 05:55:11;;;;;;;2.35;1.67;;;22.40;99.90;;;;;;5021811;28;20049;-61
2022/02/18 05:57:39;;;;;;;;;;;22.40;99.90;;;;;;5026171;28;20049;-61
2022/02/18 06:00:07;;;;;;;0.60;0.47;;;22.40;99.90;;;;;;5018579;28;19925;-61
2022/02/18 06:02:39;;;;;;;1.15;1.00;;;22.40;99.90;;;;;;5016401;28;20133;-61
2022/02/18 06:05:07;;;;;;;0.65;0.65;;;22.30;99.90;;;;;;5024153;28;20037;-62
2022/02/18 06:07:34;;;;;;;0.45;0.40;;;22.30;99.90;;;;;;5019189;28;20065;-58
2022/02/18 06:10:03;;;;;;;1.10;0.73;;;22.10;99.90;;;;;;5025727;28;20064;-60
2022/02/18 06:12:30;;;;;;;1.30;1.20;;;22.10;99.90;;;;;;5024090;28;20714;-60
2022/02/18 06:14:57;;;;;;;6.03;1.10;;;22.10;99.90;;;;;;5011885;28;20068;-60
2022/02/18 06:17:25;;;;;;;1.55;0.93;;;22.10;99.90;;;;;;5024501;28;20053;-58
2022/02/18 06:19:56;;;;;;;9.23;1.25;;;22.00;99.90;;;;;;5018686;28;20060;-61
2022/02/18 06:22:24;;;;;;;10.55;1.17;;;22.10;99.90;;;;;;5021561;28;20417;-60
2022/02/18 06:24:54;;;;;;;0.47;0.47;;;22.10;99.90;;;;;;5012735;28;20050;-61
2022/02/18 06:27:21;;;;;;;0.73;0.70;;;22.10;99.90;;;;;;5028914;28;20053;-59
2022/02/18 06:29:49;;;;;;;0.68;0.68;;;22.00;99.90;;;;;;5027442;28;20057;-58
2022/02/18 06:32:16;;;;;;;0.80;0.80;;;22.00;99.90;;;;;;5022137;28;20081;-61
2022/02/18 06:34:44;;;;;;;3.08;2.00;;;22.00;99.90;;;;;;5016424;28;20056;-61
2022/02/18 06:37:11;;;;;;;0.30;0.30;;;22.00;99.90;;;;;;5025109;28;20536;-60
2022/02/18 06:39:38;;;;;;;2.67;1.63;;;22.00;99.90;;;;;;5022641;28;20141;-59
2022/02/18 06:42:06;;;;;;;0.30;0.30;;;22.00;99.90;;;;;;5046008;28;20041;-62
2022/02/18 06:44:33;;;;;;;0.45;0.45;;;22.00;99.90;;;;;;5039418;28;20041;-60
2022/02/18 06:47:01;;;;;;;0.52;0.52;;;21.90;99.90;;;;;;5030026;28;20053;-58
2022/02/18 06:49:28;;;;;;;0.88;0.63;;;21.90;99.90;;;;;;5026521;28;20475;-60
2022/02/18 06:51:56;;;;;;;23.52;2.22;;;21.80;99.90;;;;;;5024747;28;20049;-59
2022/02/18 06:54:27;;;;;;;0.30;0.30;;;21.80;99.90;;;;;;5008780;28;20429;-58
2022/02/18 06:56:57;;;;;;;0.60;0.60;;;21.70;99.90;;;;;;5018736;28;20052;-60
2022/02/18 06:59:25;;;;;;;0.30;0.30;;;21.70;99.90;;;;;;5019429;28;20112;-62
2022/02/18 07:01:54;;;;;;;3.05;1.55;;;21.70;99.90;;;;;;5021319;28;20509;-59
2022/02/18 07:04:23;;;;;;;0.73;0.73;;;21.70;99.90;;;;;;5008758;28;20052;-58
2022/02/18 07:06:51;;;;;;;1.75;0.93;;;21.60;99.90;;;;;;5022145;28;20060;-61
2022/02/18 07:09:19;;;;;;;2.72;1.00;;;21.60;99.90;;;;;;5005731;28;20060;-60
2022/02/18 07:11:46;;;;;;;2.47;1.70;;;21.60;99.90;;;;;;5017531;28;20049;-60
2022/02/18 07:14:14;;;;;;;0.35;0.35;;;21.60;99.90;;;;;;5021042;28;20420;-61
2022/02/18 07:16:44;;;;;;;0.65;0.60;;;21.50;99.90;;;;;;5023116;28;20462;-61
2022/02/18 07:19:12;;;;;;;2.58;1.67;;;21.50;99.90;;;;;;5026567;28;20088;-59
2022/02/18 07:21:41;;;;;;;1.45;0.95;;;21.50;99.90;;;;;;5023514;28;20057;-63
2022/02/18 07:24:10;;;;;;;0.40;0.40;;;21.50;99.90;;;;;;5018898;28;20049;-59
2022/02/18 07:26:37;;;;;;;3.95;1.45;;;21.40;99.90;;;;;;5023823;28;20041;-61
2022/02/18 07:29:05;;;;;;;;;;;21.40;99.90;;;;;;5015080;28;20045;-58
2022/02/18 07:31:33;;;;;;;0.95;0.95;;;21.40;99.90;;;;;;5024012;28;20311;-59
2022/02/18 07:34:00;;;;;;;1.20;1.10;;;21.40;99.90;;;;;;5004734;28;20049;-61
2022/02/18 07:36:29;;;;;;;2.45;1.67;;;21.50;99.90;;;;;;5017662;28;20049;-59
2022/02/18 07:38:56;;;;;;;0.75;0.52;;;21.50;99.90;;;;;;5023351;28;20060;-58
2022/02/18 07:41:24;;;;;;;0.55;0.55;;;21.60;99.90;;;;;;5008997;28;20535;-59
2022/02/18 07:43:52;;;;;;;0.38;0.38;;;21.60;99.90;;;;;;5026883;28;20117;-59
2022/02/18 07:46:19;;;;;;;0.30;0.30;;;21.70;99.90;;;;;;5027775;28;20042;-57
2022/02/18 07:48:46;;;;;;;5.32;1.15;;;21.60;99.90;;;;;;5025179;28;20049;-59
2022/02/18 07:51:16;;;;;;;0.40;0.40;;;21.70;99.90;;;;;;5023980;28;20147;-60
2022/02/18 07:53:43;;;;;;;7.53;3.05;;;21.80;99.90;;;;;;5025704;28;20053;-58
2022/02/18 07:56:11;;;;;;;1.73;1.38;;;21.90;99.90;;;;;;5000142;28;20046;-61
2022/02/18 07:58:38;;;;;;;2.10;0.68;;;22.00;99.90;;;;;;5006698;28;20049;-60
2022/02/18 08:01:17;;;;;;;0.50;0.50;;;22.10;99.90;;;;;;5022168;28;20049;-60
2022/02/18 08:03:45;;;;;;;0.30;0.30;;;22.20;99.90;;;;;;5026591;28;20045;-59
2022/02/18 08:06:14;;;;;;;1.40;1.20;;;22.20;99.90;;;;;;5025322;28;20064;-60
2022/02/18 08:08:42;;;;;;;0.77;0.77;;;22.20;99.90;;;;;;5023671;28;20369;-62
2022/02/18 08:11:16;;;;;;;0.50;0.50;;;22.20;99.90;;;;;;5022656;28;20045;-66
2022/02/18 08:13:43;;;;;;;0.60;0.60;;;22.30;99.90;;;;;;5022573;28;20799;-61
2022/02/18 08:16:11;;;;;;;4.80;1.25;;;22.20;99.90;;;;;;5024289;28;20045;-65
2022/02/18 08:18:39;;;;;;;2.85;1.52;;;22.20;99.90;;;;;;5016785;28;20073;-65
2022/02/18 08:21:07;;;;;;;0.50;0.50;;;22.20;99.90;;;;;;4990622;28;20050;-62
2022/02/18 08:23:40;;;;;;;1.55;1.00;;;22.10;99.90;;;;;;5020951;28;20041;-64
2022/02/18 08:26:08;;;;;;;1.40;0.88;;;22.10;99.90;;;;;;5020703;28;20053;-67
2022/02/18 08:28:35;;;;;;;0.60;0.60;;;22.10;99.90;;;;;;5027798;28;20084;-63
2022/02/18 08:31:08;;;;;;;0.50;0.50;;;22.10;99.90;;;;;;5020643;28;21448;-61
2022/02/18 08:33:36;;;;;;;4.57;1.15;;;22.00;99.90;;;;;;5021060;28;20053;-64
2022/02/18 08:36:05;;;;;;;;;;;22.00;99.90;;;;;;5021629;28;20057;-65
2022/02/18 08:38:33;;;;;;;1.13;0.90;;;22.00;99.90;;;;;;5024519;28;20272;-63
2022/02/18 08:41:00;;;;;;;;;;;22.00;99.90;;;;;;5010039;28;20069;-64
2022/02/18 08:43:28;;;;;;;1.45;1.15;;;21.90;99.90;;;;;;5009560;28;19921;-63
2022/02/18 08:45:55;;;;;;;;;;;21.90;99.90;;;;;;5024255;28;20045;-63
2022/02/18 08:48:22;;;;;;;0.57;0.57;;;21.90;99.90;;;;;;5005636;28;20977;-67
2022/02/18 08:50:50;;;;;;;8.38;1.65;;;21.90;99.90;;;;;;5017774;28;20056;-65
2022/02/18 08:53:18;;;;;;;13.88;2.10;;;21.80;99.90;;;;;;5028299;28;20041;-61
2022/02/18 08:55:46;;;;;;;0.30;0.30;;;21.80;99.90;;;;;;5022299;28;20056;-67
2022/02/18 08:58:13;;;;;;;1.40;1.17;;;21.80;99.90;;;;;;5021303;28;20522;-63
2022/02/18 09:00:40;;;;;;;3.72;2.55;;;21.80;99.90;;;;;;5020876;28;20084;-64
2022/02/18 09:03:10;;;;;;;0.88;0.88;;;21.80;99.90;;;;;;5000793;28;20049;-61
2022/02/18 09:05:38;;;;;;;0.47;0.47;;;21.80;99.90;;;;;;5021014;28;20424;-64
2022/02/18 09:08:05;;;;;;;0.30;0.30;;;21.80;99.90;;;;;;5005219;28;20053;-64
2022/02/18 09:10:33;;;;;;;1.27;1.10;;;21.80;99.90;;;;;;5023902;28;20513;-61
2022/02/18 09:13:00;;;;;;;5.72;2.28;;;21.80;99.90;;;;;;5022937;28;20049;-63
2022/02/18 09:15:27;;;;;;;3.85;2.10;;;21.80;99.90;;;;;;5018889;28;20054;-65
2022/02/18 09:18:17;;;;;;;1.20;1.10;;;21.70;99.90;;;;;;5020879;28;20877;-63
2022/02/18 09:20:47;;;;;;;0.43;0.43;;;21.70;99.90;;;;;;5020348;28;20086;-60
2022/02/18 09:23:16;;;;;;;0.45;0.45;;;21.70;99.90;;;;;;5006644;28;20097;-62
2022/02/18 09:25:45;;;;;;;0.30;0.30;;;21.70;99.90;;;;;;5004492;28;20049;-61
2022/02/18 09:28:13;;;;;;;0.30;0.30;;;21.70;99.90;;;;;;5018223;28;20053;-61
2022/02/18 09:30:45;;;;;;;0.95;0.75;;;21.70;99.90;;;;;;5019680;28;20057;-64
2022/02/18 09:33:17;;;;;;;0.47;0.47;;;21.70;99.90;;;;;;5019040;28;20041;-60
2022/02/18 09:35:46;;;;;;;1.95;0.82;;;21.70;99.90;;;;;;5023487;28;20040;-63
2022/02/18 09:38:17;;;;;;;1.17;0.95;;;21.70;99.90;;;;;;5023432;28;20046;-59
2022/02/18 09:40:45;;;;;;;2.53;1.27;;;21.70;99.90;;;;;;5031768;28;20101;-67
2022/02/18 09:43:15;;;;;;;0.60;0.60;;;21.70;99.90;;;;;;5040876;28;20401;-61
2022/02/18 09:45:45;;;;;;;3.40;1.63;;;21.70;99.90;;;;;;5025894;28;20052;-59
2022/02/18 09:48:14;;;;;;;0.75;0.70;;;21.70;99.90;;;;;;5040076;28;20385;-60
2022/02/18 09:50:42;;;;;;;2.28;1.27;;;21.70;99.90;;;;;;5025757;28;20075;-61
2022/02/18 09:53:19;;;;;;;0.50;0.50;;;21.80;99.90;;;;;;5026206;28;20037;-60
2022/02/18 09:55:47;;;;;;;0.25;0.25;;;22.00;99.90;;;;;;5027056;28;20049;-61
2022/02/18 09:58:22;;;;;;;0.40;0.40;;;22.10;99.90;;;;;;5019711;28;20053;-59
2022/02/18 10:00:50;;;;;;;0.55;0.55;;;22.20;99.90;;;;;;5023374;28;20056;-55
2022/02/18 10:03:20;;;;;;;0.43;0.43;;;22.20;99.90;;;;;;5023773;28;20031;-59
2022/02/18 10:05:48;;;;;;;0.55;0.55;;;22.30;99.90;;;;;;5016054;28;20497;-63
2022/02/18 10:08:18;;;;;;;0.45;0.45;;;22.30;99.90;;;;;;5038432;28;20053;-64
2022/02/18 10:11:02;;;;;;;0.60;0.60;;;22.40;99.90;;;;;;5029216;28;20590;-61
2022/02/18 10:13:35;;;;;;;0.45;0.45;;;22.40;99.90;;;;;;5019335;28;20435;-59
2022/02/18 10:16:24;;;;;;;0.30;0.30;;;22.30;99.90;;;;;;5021244;28;20473;-64
2022/02/18 10:18:53;;;;;;;0.50;0.50;;;22.30;99.90;;;;;;5026128;28;20042;-60
2022/02/18 10:21:29;;;;;;;0.40;0.40;;;22.30;99.90;;;;;;5025886;28;20056;-60
2022/02/18 10:24:05;;;;;;;1.40;0.73;;;22.30;99.90;;;;;;5023575;28;20046;-61
2022/02/18 10:26:41;;;;;;;0.40;0.40;;;22.20;99.90;;;;;;5015321;28;20037;-60
2022/02/18 10:29:17;;;;;;;0.30;0.30;;;22.20;99.90;;;;;;5018482;28;20045;-60
2022/02/18 10:32:04;;;;;;;0.35;0.35;;;22.20;99.90;;;;;;5023185;28;20532;-61
2022/02/18 10:35:00;;;;;;;0.98;0.65;;;22.20;99.90;;;;;;5025280;28;20113;-64
2022/02/18 10:37:30;;;;;;;0.30;0.30;;;22.10;99.90;;;;;;5024006;28;20061;-55
2022/02/18 10:40:24;;;;;;;0.90;0.90;;;22.10;99.90;;;;;;5020779;28;20548;-62
2022/02/18 10:42:53;;;;;;;5.00;1.85;;;22.00;99.90;;;;;;5020409;28;20049;-61
2022/02/18 10:45:20;;;;;;;16.48;1.33;;;22.00;99.90;;;;;;5027052;28;20053;-63
2022/02/18 10:47:50;;;;;;;2.30;1.95;;;22.00;99.90;;;;;;5026109;28;20033;-57
2022/02/18 10:50:23;;;;;;;0.60;0.60;;;22.00;99.90;;;;;;5024694;28;20049;-59
2022/02/18 10:53:12;;;;;;;0.30;0.30;;;22.00;99.90;;;;;;5023453;28;20057;-61
2022/02/18 10:55:57;;;;;;;0.50;0.50;;;21.90;99.90;;;;;;5025953;28;20045;-60
2022/02/18 10:58:24;;;;;;;1.20;0.95;;;21.90;99.90;;;;;;5028745;28;20444;-58
2022/02/18 11:01:03;;;;;;;2.28;0.47;;;21.80;99.90;;;;;;5025558;28;20046;-62
2022/02/18 11:03:32;;;;;;;0.73;0.73;;;21.80;99.90;;;;;;5023192;28;20054;-59
2022/02/18 11:06:20;;;;;;;1.00;0.77;;;21.80;99.90;;;;;;5023738;28;20042;-61
2022/02/18 11:08:55;;;;;;;0.50;0.50;;;21.80;99.90;;;;;;5023364;28;20063;-60
2022/02/18 11:11:38;;;;;;;0.30;0.30;;;21.70;99.90;;;;;;5022544;28;20547;-60
2022/02/18 11:14:12;;;;;;;0.52;0.40;;;21.80;99.90;;;;;;5023152;28;20061;-61
2022/02/18 11:16:41;;;;;;;0.57;0.57;;;21.80;99.90;;;;;;5021061;28;20057;-58
2022/02/18 11:19:09;;;;;;;1.38;0.82;;;21.70;99.90;;;;;;5020226;28;20052;-60
2022/02/18 11:21:56;;;;;;;1.15;1.00;;;21.70;99.90;;;;;;5020414;28;20046;-62
2022/02/18 11:24:25;;;;;;;0.57;0.57;;;21.70;99.90;;;;;;5020748;28;20052;-64
2022/02/18 11:26:52;;;;;;;1.08;1.02;;;21.70;99.90;;;;;;5005651;28;20053;-62
2022/02/18 11:29:20;;;;;;;1.75;0.85;;;21.70;99.90;;;;;;5035272;28;20058;-63
2022/02/18 11:31:58;;;;;;;0.93;0.65;;;21.60;99.90;;;;;;5028548;28;20061;-61
2022/02/18 11:34:56;;;;;;;0.40;0.40;;;21.60;99.90;;;;;;5022806;28;20057;-60
2022/02/18 11:38:04;;;;;;;1.85;0.95;;;21.60;99.90;;;;;;5026000;28;20054;-61
2022/02/18 11:40:42;;;;;;;0.77;0.75;;;21.60;99.90;;;;;;5006895;28;20057;-63
2022/02/18 11:43:22;;;;;;;;;;;21.60;99.90;;;;;;5024810;28;20048;-60
2022/02/18 11:45:59;;;;;;;0.82;0.82;;;21.60;99.90;;;;;;5024764;28;19925;-60
2022/02/18 11:48:44;;;;;;;9.27;4.43;;;21.60;99.90;;;;;;5005104;28;20528;-59
2022/02/18 11:51:22;;;;;;;29.63;13.20;;;21.70;99.90;;;;;;5015195;28;20444;-59
2022/02/18 11:53:52;;;;;;;28.08;13.30;;;21.70;99.90;;;;;;5019933;28;20056;-65
2022/02/18 11:56:39;;;;;;;27.92;17.50;;;21.80;99.90;;;;;;5015975;28;20663;-61
2022/02/18 11:59:10;;;;;;;26.65;15.75;;;22.00;99.90;;;;;;5021340;28;20049;-62
2022/02/18 12:01:57;;;;;;;23.33;16.13;;;22.20;99.90;;;;;;5025196;28;20042;-64
2022/02/18 12:04:25;;;;;;;25.23;15.43;;;22.30;99.90;;;;;;5027796;28;20056;-63
2022/02/18 12:07:15;;;;;;;17.05;10.88;;;22.50;99.90;;;;;;5029415;28;20048;-63
2022/02/18 12:09:48;;;;;;;31.92;16.10;;;22.60;99.90;;;;;;5022506;28;20057;-66
2022/02/18 12:12:22;;;;;;;36.40;13.90;;;22.60;99.90;;;;;;5025208;28;20049;-71
2022/02/18 12:15:07;;;;;;;26.88;17.17;;;22.60;99.90;;;;;;5006209;28;20543;-62
2022/02/18 12:17:38;;;;;;;28.55;15.48;;;22.60;99.90;;;;;;5024162;28;20053;-60
2022/02/18 12:20:13;;;;;;;22.58;12.65;;;22.50;99.90;;;;;;5019251;28;20045;-61
2022/02/18 12:22:41;;;;;;;36.08;12.77;;;22.50;99.90;;;;;;4973768;28;20045;-59
2022/02/18 12:25:22;;;;;;;28.23;16.08;;;22.40;99.90;;;;;;5026205;28;20493;-61
2022/02/18 12:27:51;;;;;;;23.40;14.90;;;22.40;99.90;;;;;;5022266;28;20041;-59
2022/02/18 12:30:21;;;;;;;29.63;13.45;;;22.30;99.90;;;;;;5018740;28;20053;-60
2022/02/18 12:32:50;;;;;;;22.75;11.95;;;22.30;99.90;;;;;;5023074;28;20409;-62
2022/02/18 12:35:24;;;;;;;16.88;10.27;;;22.30;99.90;;;;;;5010783;28;20116;-62
2022/02/18 12:37:52;;;;;;;24.35;12.23;;;22.20;99.90;;;;;;5024880;28;20053;-60
2022/02/18 12:40:19;;;;;;;19.25;12.05;;;22.20;99.90;;;;;;5007519;28;20041;-58
2022/02/18 12:43:00;;;;;;;13.93;9.30;;;22.20;99.90;;;;;;5018808;28;20042;-62
2022/02/18 12:45:48;;;;;;;30.27;8.98;;;22.20;99.90;;;;;;5019098;28;20584;-59
2022/02/18 12:48:47;;;;;;;32.67;14.15;;;22.20;99.90;;;;;;5022420;28;20444;-59
2022/02/18 12:51:27;;;;;;;12.95;7.15;;;22.10;99.90;;;;;;5018788;28;20048;-60
2022/02/18 12:54:00;;;;;;;12.80;8.35;;;22.10;99.90;;;;;;5025535;28;20049;-61
2022/02/18 12:56:29;;;;;;;25.10;9.73;;;22.10;99.90;;;;;;5023897;28;20528;-57
2022/02/18 12:59:02;;;;;;;8.60;5.82;;;22.10;99.90;;;;;;5020883;28;20049;-59
2022/02/18 13:01:31;;;;;;;14.05;7.65;;;22.10;99.90;;;;;;5022681;28;20413;-61
2022/02/18 13:04:18;;;;;;;23.08;12.68;;;22.00;99.90;;;;;;5017602;28;20053;-61
2022/02/18 13:06:50;;;;;;;16.45;8.20;;;22.10;99.90;;;;;;5021568;28;20049;-57